createdAt,value
2017-06-26T00:02:13.935Z,2.07
2017-06-26T00:04:41.375Z,1.50
2017-06-26T00:07:10.163Z,1.40
2017-06-26T00:09:38.364Z,1.70
2017-06-26T00:12:06.156Z,1.53
2017-06-26T00:14:34.003Z,1.83
2017-06-26T00:17:02.388Z,1.67
2017-06-26T00:19:29.835Z,1.80
2017-06-26T00:21:57.283Z,3.53
2017-06-26T00:24:24.727Z,2.33
2017-06-26T00:26:52.177Z,4.00
2017-06-26T00:29:19.623Z,2.63
2017-06-26T00:31:47.090Z,1.80
2017-06-26T00:34:15.294Z,2.00
2017-06-26T00:36:42.734Z,2.27
2017-06-26T00:39:10.187Z,1.90
2017-06-26T00:41:37.628Z,6.20
2017-06-26T00:44:05.847Z,2.27
2017-06-26T00:46:33.286Z,2.60
2017-06-26T00:49:00.730Z,2.03
2017-06-26T00:51:28.166Z,2.70
2017-06-26T00:53:56.399Z,2.13
2017-06-26T00:56:23.840Z,1.83
2017-06-26T00:58:51.279Z,2.27
2017-06-26T01:01:18.723Z,2.13
2017-06-26T01:03:46.162Z,2.33
2017-06-26T01:06:13.615Z,2.80
2017-06-26T01:08:41.058Z,2.17
2017-06-26T01:11:08.499Z,2.63
2017-06-26T01:16:33.582Z,2.30
2017-06-26T01:19:01.030Z,2.90
2017-06-26T01:21:29.242Z,2.80
2017-06-26T01:23:56.678Z,3.60
2017-06-26T01:26:24.131Z,4.20
2017-06-26T01:28:51.571Z,2.60
2017-06-26T01:31:19.017Z,2.30
2017-06-26T01:33:46.470Z,2.43
2017-06-26T01:36:15.886Z,2.17
2017-06-26T01:38:44.511Z,1.87
2017-06-26T01:41:11.950Z,1.80
2017-06-26T01:43:40.182Z,3.17
2017-06-26T01:46:07.699Z,3.00
2017-06-26T01:48:36.114Z,2.37
2017-06-26T01:51:03.632Z,2.93
2017-06-26T01:53:31.086Z,4.60
2017-06-26T01:55:58.530Z,2.17
2017-06-26T01:58:25.954Z,2.20
2017-06-26T02:00:54.247Z,8.00
2017-06-26T02:03:21.692Z,1.90
2017-06-26T02:05:49.907Z,2.50
2017-06-26T02:08:17.346Z,2.47
2017-06-26T02:10:45.726Z,6.70
2017-06-26T02:13:13.163Z,2.10
2017-06-26T02:15:42.003Z,2.40
2017-06-26T02:18:10.877Z,2.03
2017-06-26T02:20:38.306Z,1.90
2017-06-26T02:23:05.734Z,2.60
2017-06-26T02:25:33.211Z,2.00
2017-06-26T02:28:01.410Z,2.37
2017-06-26T02:30:29.650Z,2.80
2017-06-26T02:32:57.094Z,2.63
2017-06-26T02:35:24.539Z,4.30
2017-06-26T02:37:51.986Z,2.30
2017-06-26T02:40:20.059Z,4.87
2017-06-26T02:42:47.507Z,2.80
2017-06-26T02:45:14.955Z,4.13
2017-06-26T02:47:42.411Z,2.30
2017-06-26T02:50:10.575Z,1.80
2017-06-26T02:52:38.022Z,2.10
2017-06-26T02:55:05.465Z,4.20
2017-06-26T02:57:32.926Z,3.13
2017-06-26T03:00:00.367Z,5.73
2017-06-26T03:02:27.802Z,2.90
2017-06-26T03:04:55.253Z,2.03
2017-06-26T03:07:22.683Z,2.10
2017-06-26T03:09:50.128Z,1.83
2017-06-26T03:12:17.574Z,5.13
2017-06-26T03:14:45.026Z,3.60
2017-06-26T03:17:12.455Z,2.83
2017-06-26T03:19:40.314Z,2.17
2017-06-26T03:22:07.750Z,2.63
2017-06-26T03:24:35.198Z,2.63
2017-06-26T03:27:02.631Z,3.67
2017-06-26T03:29:30.100Z,2.23
2017-06-26T03:31:57.536Z,1.67
2017-06-26T03:34:24.982Z,4.30
2017-06-26T03:36:53.187Z,2.20
2017-06-26T03:39:21.554Z,2.17
2017-06-26T03:41:48.995Z,1.70
2017-06-26T03:44:17.466Z,2.37
2017-06-26T03:46:44.911Z,4.83
2017-06-26T03:49:12.370Z,2.30
2017-06-26T03:51:39.791Z,2.17
2017-06-26T03:54:07.229Z,2.53
2017-06-26T03:56:34.678Z,2.73
2017-06-26T03:59:02.114Z,2.30
2017-06-26T04:01:29.554Z,4.43
2017-06-26T04:03:57.774Z,2.47
2017-06-26T04:06:25.230Z,3.17
2017-06-26T04:08:52.675Z,2.30
2017-06-26T04:11:20.126Z,3.13
2017-06-26T04:13:47.939Z,1.67
2017-06-26T04:16:15.866Z,4.90
2017-06-26T04:18:43.734Z,4.23
2017-06-26T04:21:11.175Z,2.43
2017-06-26T04:23:38.627Z,2.27
2017-06-26T04:26:06.848Z,1.77
2017-06-26T04:28:35.288Z,2.20
2017-06-26T04:31:02.739Z,3.13
2017-06-26T04:33:30.208Z,6.30
2017-06-26T04:35:57.642Z,1.57
2017-06-26T04:38:25.514Z,4.00
2017-06-26T04:40:52.955Z,2.90
2017-06-26T04:43:20.415Z,1.80
2017-06-26T04:45:48.627Z,3.53
2017-06-26T04:48:16.483Z,2.50
2017-06-26T04:50:45.874Z,2.23
2017-06-26T04:53:13.313Z,1.80
2017-06-26T04:55:40.791Z,1.90
2017-06-26T04:58:08.979Z,2.90
2017-06-26T05:00:36.411Z,1.87
2017-06-26T05:03:03.908Z,1.40
2017-06-26T05:05:31.349Z,2.73
2017-06-26T05:07:58.785Z,2.23
2017-06-26T05:10:27.007Z,1.57
2017-06-26T05:12:54.455Z,1.87
2017-06-26T05:15:21.908Z,2.70
2017-06-26T05:17:50.019Z,2.60
2017-06-26T05:20:18.067Z,1.67
2017-06-26T05:22:46.514Z,2.50
2017-06-26T05:25:13.946Z,2.93
2017-06-26T05:27:41.402Z,2.70
2017-06-26T05:30:09.751Z,2.23
2017-06-26T05:32:37.199Z,1.80
2017-06-26T05:35:04.636Z,3.00
2017-06-26T05:37:32.095Z,1.90
2017-06-26T05:39:59.529Z,2.60
2017-06-26T05:42:26.959Z,2.47
2017-06-26T05:44:54.410Z,2.33
2017-06-26T05:47:22.668Z,1.97
2017-06-26T05:49:55.770Z,3.17
2017-06-26T05:52:23.210Z,1.53
2017-06-26T05:54:51.179Z,2.23
2017-06-26T05:57:18.618Z,2.20
2017-06-26T05:59:46.169Z,1.57
2017-06-26T06:02:13.606Z,1.43
2017-06-26T06:04:41.050Z,2.77
2017-06-26T06:07:09.286Z,2.20
2017-06-26T06:09:36.743Z,3.47
2017-06-26T06:12:04.183Z,1.80
2017-06-26T06:14:31.628Z,2.03
2017-06-26T06:16:59.070Z,2.20
2017-06-26T06:19:26.516Z,2.90
2017-06-26T06:21:53.968Z,1.60
2017-06-26T06:24:22.582Z,1.40
2017-06-26T06:26:50.027Z,2.20
2017-06-26T06:29:17.462Z,1.73
2017-06-26T06:31:44.916Z,2.97
2017-06-26T06:34:13.126Z,2.00
2017-06-26T06:36:40.590Z,1.67
2017-06-26T06:39:08.809Z,1.63
2017-06-26T06:41:37.028Z,1.23
2017-06-26T06:44:05.355Z,1.30
2017-06-26T06:46:33.437Z,1.13
2017-06-26T06:49:00.869Z,1.87
2017-06-26T06:51:28.636Z,3.10
2017-06-26T06:53:56.074Z,1.63
2017-06-26T06:56:23.516Z,1.77
2017-06-26T06:58:50.972Z,2.60
2017-06-26T07:01:18.394Z,1.67
2017-06-26T07:03:46.606Z,1.70
2017-06-26T07:06:17.086Z,1.37
2017-06-26T07:08:45.314Z,1.53
2017-06-26T07:11:12.754Z,1.90
2017-06-26T07:13:40.187Z,1.73
2017-06-26T07:16:07.648Z,1.20
2017-06-26T07:18:37.071Z,1.10
2017-06-26T07:21:04.946Z,1.50
2017-06-26T07:23:34.562Z,1.10
2017-06-26T07:26:01.992Z,1.10
2017-06-26T07:28:29.426Z,1.20
2017-06-26T07:30:57.642Z,1.60
2017-06-26T07:33:25.079Z,1.27
2017-06-26T07:35:52.539Z,2.43
2017-06-26T07:38:19.978Z,1.30
2017-06-26T07:40:48.206Z,1.20
2017-06-26T07:43:15.642Z,2.33
2017-06-26T07:45:43.078Z,2.10
2017-06-26T07:48:10.528Z,1.20
2017-06-26T07:50:38.340Z,2.60
2017-06-26T07:53:05.799Z,1.30
2017-06-26T07:55:33.248Z,2.40
2017-06-26T07:58:00.694Z,1.20
2017-06-26T08:00:28.139Z,1.50
2017-06-26T08:02:55.591Z,2.00
2017-06-26T08:05:23.042Z,1.97
2017-06-26T08:07:50.474Z,2.40
2017-06-26T08:10:18.918Z,2.57
2017-06-26T08:12:46.723Z,1.37
2017-06-26T08:15:16.039Z,1.20
2017-06-26T08:17:45.671Z,1.43
2017-06-26T08:20:13.118Z,1.03
2017-06-26T08:22:40.557Z,1.10
2017-06-26T08:25:08.574Z,1.97
2017-06-26T08:27:36.022Z,1.90
2017-06-26T08:30:03.480Z,1.20
2017-06-26T08:32:30.910Z,1.37
2017-06-26T08:34:58.346Z,2.17
2017-06-26T08:37:27.702Z,1.53
2017-06-26T08:39:55.147Z,1.47
2017-06-26T08:42:24.602Z,1.13
2017-06-26T08:44:52.809Z,0.87
2017-06-26T08:47:20.263Z,1.33
2017-06-26T08:49:49.203Z,1.17
2017-06-26T08:52:16.659Z,1.43
2017-06-26T08:54:44.087Z,1.90
2017-06-26T08:57:11.544Z,1.00
2017-06-26T08:59:39.795Z,1.30
2017-06-26T09:02:07.239Z,1.50
2017-06-26T09:04:34.678Z,2.47
2017-06-26T09:07:02.903Z,1.30
2017-06-26T09:09:30.339Z,2.37
2017-06-26T09:11:58.794Z,1.30
2017-06-26T09:14:27.011Z,1.77
2017-06-26T09:16:54.450Z,1.57
2017-06-26T09:19:22.894Z,1.73
2017-06-26T09:21:50.327Z,1.70
2017-06-26T09:24:17.779Z,1.13
2017-06-26T09:26:45.321Z,1.50
2017-06-26T09:29:12.747Z,1.30
2017-06-26T09:31:40.704Z,1.70
2017-06-26T09:34:08.935Z,1.33
2017-06-26T09:36:36.378Z,1.57
2017-06-26T09:39:03.828Z,1.33
2017-06-26T09:41:31.275Z,1.77
2017-06-26T09:43:58.714Z,1.67
2017-06-26T09:46:26.926Z,1.40
2017-06-26T09:48:54.366Z,1.30
2017-06-26T09:51:21.818Z,1.73
2017-06-26T09:53:49.255Z,1.27
2017-06-26T09:56:17.466Z,1.37
2017-06-26T09:58:44.907Z,3.00
2017-06-26T10:01:12.355Z,1.40
2017-06-26T10:03:39.798Z,2.50
2017-06-26T10:06:08.039Z,1.53
2017-06-26T10:08:36.030Z,1.87
2017-06-26T10:11:04.242Z,3.23
2017-06-26T10:13:31.694Z,3.97
2017-06-26T10:15:59.127Z,1.57
2017-06-26T10:18:27.350Z,1.63
2017-06-26T10:20:54.783Z,1.53
2017-06-26T10:23:22.237Z,2.27
2017-06-26T10:25:49.684Z,5.73
2017-06-26T10:28:17.896Z,1.40
2017-06-26T10:30:45.330Z,2.07
2017-06-26T10:33:13.467Z,2.17
2017-06-26T10:35:40.903Z,1.40
2017-06-26T10:38:08.347Z,1.80
2017-06-26T10:40:35.787Z,2.20
2017-06-26T10:43:03.220Z,1.40
2017-06-26T10:45:30.666Z,1.00
2017-06-26T10:47:58.106Z,2.43
2017-06-26T10:50:26.324Z,1.53
2017-06-26T10:52:53.766Z,1.50
2017-06-26T10:55:21.226Z,2.70
2017-06-26T10:57:48.654Z,1.20
2017-06-26T11:00:17.235Z,1.50
2017-06-26T11:02:45.439Z,1.87
2017-06-26T11:05:12.899Z,1.47
2017-06-26T11:07:41.039Z,1.67
2017-06-26T11:10:09.263Z,1.37
2017-06-26T11:12:37.527Z,1.40
2017-06-26T11:15:04.975Z,1.53
2017-06-26T11:17:32.434Z,1.30
2017-06-26T11:19:59.866Z,1.60
2017-06-26T11:22:29.014Z,1.80
2017-06-26T11:24:56.457Z,1.43
2017-06-26T11:27:23.911Z,1.43
2017-06-26T11:29:51.353Z,2.97
2017-06-26T11:32:18.802Z,1.93
2017-06-26T11:34:46.238Z,2.07
2017-06-26T11:37:14.465Z,1.20
2017-06-26T11:39:41.902Z,1.93
2017-06-26T11:42:09.358Z,1.90
2017-06-26T11:44:36.802Z,2.60
2017-06-26T11:47:04.287Z,2.20
2017-06-26T11:49:31.719Z,1.63
2017-06-26T11:51:59.158Z,1.57
2017-06-26T11:54:27.368Z,1.60
2017-06-26T11:56:54.810Z,3.27
2017-06-26T11:59:22.262Z,1.77
2017-06-26T12:01:49.698Z,1.50
2017-06-26T12:04:17.147Z,1.47
2017-06-26T12:06:44.604Z,1.70
2017-06-26T12:09:13.206Z,2.00
2017-06-26T12:11:42.623Z,1.87
2017-06-26T12:14:10.055Z,1.67
2017-06-26T12:16:38.279Z,1.20
2017-06-26T12:19:06.255Z,1.50
2017-06-26T12:21:33.707Z,1.50
2017-06-26T12:24:01.715Z,2.73
2017-06-26T12:26:29.163Z,2.67
2017-06-26T12:28:56.610Z,1.70
2017-06-26T12:31:24.063Z,3.40
2017-06-26T12:33:51.503Z,1.80
2017-06-26T12:36:18.963Z,1.63
2017-06-26T12:38:46.954Z,1.50
2017-06-26T12:41:14.419Z,1.33
2017-06-26T12:43:41.858Z,1.63
2017-06-26T12:46:09.323Z,1.57
2017-06-26T12:48:36.759Z,1.40
2017-06-26T12:51:04.204Z,2.10
2017-06-26T12:53:31.654Z,4.23
2017-06-26T12:55:59.097Z,1.77
2017-06-26T12:58:27.311Z,2.50
2017-06-26T13:00:54.742Z,3.63
2017-06-26T13:03:22.202Z,1.90
2017-06-26T13:05:49.644Z,3.23
2017-06-26T13:08:17.118Z,3.40
2017-06-26T13:10:44.558Z,2.20
2017-06-26T13:13:12.016Z,1.43
2017-06-26T13:15:39.466Z,2.77
2017-06-26T13:18:06.923Z,2.13
2017-06-26T13:20:35.130Z,1.97
2017-06-26T13:23:02.591Z,1.70
2017-06-26T13:25:30.023Z,2.57
2017-06-26T13:27:57.467Z,2.40
2017-06-26T13:30:25.674Z,3.73
2017-06-26T13:32:53.128Z,2.30
2017-06-26T13:35:21.452Z,3.50
2017-06-26T13:37:48.891Z,1.80
2017-06-26T13:40:16.339Z,1.53
2017-06-26T13:42:43.778Z,1.60
2017-06-26T13:45:11.234Z,2.83
2017-06-26T13:47:39.514Z,1.50
2017-06-26T13:50:06.959Z,1.73
2017-06-26T13:52:34.401Z,1.70
2017-06-26T13:55:01.839Z,2.10
2017-06-26T13:57:30.058Z,1.97
2017-06-26T13:59:57.499Z,4.53
2017-06-26T14:02:24.950Z,2.10
2017-06-26T14:04:53.206Z,1.80
2017-06-26T14:07:21.422Z,2.07
2017-06-26T14:09:48.858Z,2.70
2017-06-26T14:12:36.634Z,1.80
2017-06-26T14:15:14.747Z,1.87
2017-06-26T14:17:42.198Z,1.83
2017-06-26T14:20:09.638Z,1.87
2017-06-26T14:22:37.624Z,1.90
2017-06-26T14:25:05.159Z,1.70
2017-06-26T14:27:32.615Z,2.10
2017-06-26T14:30:01.819Z,2.80
2017-06-26T14:32:29.255Z,2.97
2017-06-26T14:34:56.710Z,2.03
2017-06-26T14:37:24.718Z,2.30
2017-06-26T14:39:52.170Z,1.80
2017-06-26T14:42:19.609Z,2.10
2017-06-26T14:44:47.079Z,2.90
2017-06-26T14:47:14.524Z,2.47
2017-06-26T14:49:41.979Z,6.03
2017-06-26T14:52:09.426Z,2.47
2017-06-26T14:54:36.875Z,2.07
2017-06-26T14:57:04.767Z,2.30
2017-06-26T14:59:32.219Z,2.67
2017-06-26T15:01:59.660Z,4.20
2017-06-26T15:04:27.599Z,2.53
2017-06-26T15:06:56.206Z,2.07
2017-06-26T15:09:23.662Z,2.30
2017-06-26T15:11:51.111Z,3.67
2017-06-26T15:14:19.344Z,2.40
2017-06-26T15:16:46.784Z,2.30
2017-06-26T15:19:14.219Z,5.23
2017-06-26T15:21:41.671Z,2.40
2017-06-26T15:24:09.118Z,5.40
2017-06-26T15:26:36.559Z,2.50
2017-06-26T15:29:05.982Z,4.70
2017-06-26T15:31:33.435Z,2.53
2017-06-26T15:34:01.323Z,3.10
2017-06-26T15:36:28.785Z,3.53
2017-06-26T15:38:56.222Z,2.30
2017-06-26T15:41:23.683Z,2.30
2017-06-26T15:43:51.115Z,3.70
2017-06-26T15:46:19.334Z,3.43
2017-06-26T15:48:47.466Z,3.00
2017-06-26T15:51:14.902Z,3.00
2017-06-26T15:53:43.124Z,2.80
2017-06-26T15:56:11.295Z,3.40
2017-06-26T15:58:38.743Z,3.00
2017-06-26T16:01:06.183Z,5.43
2017-06-26T16:03:34.501Z,4.53
2017-06-26T16:06:01.923Z,3.03
2017-06-26T16:08:29.746Z,5.70
2017-06-26T16:10:57.187Z,3.20
2017-06-26T16:13:24.631Z,3.37
2017-06-26T16:15:52.085Z,3.20
2017-06-26T16:18:20.311Z,3.30
2017-06-26T16:20:48.515Z,3.50
2017-06-26T16:23:15.967Z,2.87
2017-06-26T16:25:43.450Z,3.03
2017-06-26T16:28:10.870Z,4.03
2017-06-26T16:30:39.094Z,3.63
2017-06-26T16:33:07.358Z,3.37
2017-06-26T16:38:09.630Z,3.20
2017-06-26T16:40:37.083Z,4.00
2017-06-26T16:43:05.160Z,3.40
2017-06-26T16:45:32.628Z,4.03
2017-06-26T16:48:00.071Z,3.43
2017-06-26T16:50:27.529Z,3.40
2017-06-26T16:52:54.962Z,3.67
2017-06-26T16:55:23.171Z,3.97
2017-06-26T16:57:50.634Z,4.63
2017-06-26T17:00:18.071Z,3.87
2017-06-26T17:02:45.527Z,3.90
2017-06-26T17:05:12.978Z,3.50
2017-06-26T17:07:40.426Z,4.67
2017-06-26T17:10:07.868Z,3.87
2017-06-26T17:12:40.826Z,4.03
2017-06-26T17:15:08.276Z,5.30
2017-06-26T17:17:36.490Z,3.97
2017-06-26T17:20:04.704Z,4.90
2017-06-26T17:22:32.512Z,4.63
2017-06-26T17:24:59.966Z,4.03
2017-06-26T17:27:27.415Z,5.13
2017-06-26T17:29:54.862Z,4.07
2017-06-26T17:32:23.123Z,4.83
2017-06-26T17:34:50.587Z,4.33
2017-06-26T17:37:18.030Z,4.63
2017-06-26T17:39:45.476Z,4.77
2017-06-26T17:42:12.914Z,4.60
2017-06-26T17:44:40.390Z,3.87
2017-06-26T17:47:07.826Z,6.03
2017-06-26T17:49:36.182Z,11.07
2017-06-26T17:52:05.179Z,4.10
2017-06-26T17:54:33.379Z,4.10
2017-06-26T17:57:00.839Z,4.00
2017-06-26T17:59:28.279Z,6.30
2017-06-26T18:01:56.498Z,6.10
2017-06-26T18:04:23.948Z,5.57
2017-06-26T18:06:51.767Z,4.80
2017-06-26T18:09:19.207Z,4.90
2017-06-26T18:29:08.130Z,7.50
2017-06-26T18:31:35.570Z,7.67
2017-06-26T18:34:03.018Z,6.13
2017-06-26T18:36:31.225Z,5.63
2017-06-26T18:38:59.559Z,5.70
2017-06-26T18:41:26.994Z,6.73
2017-06-26T18:43:54.434Z,7.00
2017-06-26T18:46:21.883Z,7.13
2017-06-26T18:48:50.143Z,6.77
2017-06-26T18:51:17.609Z,8.10
2017-06-26T18:53:45.046Z,6.47
2017-06-26T18:56:12.494Z,6.90
2017-06-26T18:58:41.526Z,7.93
2017-06-26T19:01:09.315Z,7.70
2017-06-26T19:03:36.763Z,10.80
2017-06-26T19:06:04.212Z,7.33
2017-06-26T19:08:32.496Z,8.00
2017-06-26T19:11:00.644Z,8.57
2017-06-26T19:13:28.078Z,9.10
2017-06-26T19:15:55.510Z,9.30
2017-06-26T19:18:23.751Z,10.67
2017-06-26T19:20:51.196Z,7.40
2017-06-26T19:23:18.647Z,7.60
2017-06-26T19:25:46.082Z,8.27
2017-06-26T19:28:13.662Z,9.00
2017-06-26T19:30:41.120Z,8.70
2017-06-26T19:33:09.711Z,9.37
2017-06-26T19:35:37.162Z,10.20
2017-06-26T19:38:04.628Z,8.53
2017-06-26T19:40:32.079Z,7.40
2017-06-26T19:42:59.519Z,8.10
2017-06-26T19:45:26.967Z,8.23
2017-06-26T19:47:55.539Z,8.77
2017-06-26T19:50:22.983Z,8.40
2017-06-26T19:52:51.187Z,8.40
2017-06-26T19:55:18.634Z,9.60
2017-06-26T19:57:46.728Z,9.77
2017-06-26T20:00:14.771Z,8.50
2017-06-26T20:02:42.858Z,11.30
2017-06-26T20:05:12.438Z,9.00
2017-06-26T20:07:40.648Z,8.93
2017-06-26T20:10:08.084Z,10.17
2017-06-26T20:12:35.537Z,9.30
2017-06-26T20:15:02.976Z,9.67
2017-06-26T20:17:31.198Z,8.73
2017-06-26T20:19:58.634Z,9.10
2017-06-26T20:22:26.082Z,10.47
2017-06-26T20:24:53.530Z,10.33
2017-06-26T20:27:22.534Z,10.20
2017-06-26T20:29:49.982Z,10.10
2017-06-26T20:32:18.210Z,11.17
2017-06-26T20:34:46.059Z,10.30
2017-06-26T20:37:13.476Z,9.77
2017-06-26T20:39:41.702Z,9.83
2017-06-26T20:42:09.145Z,8.63
2017-06-26T20:44:37.434Z,10.63
2017-06-26T20:47:04.879Z,10.70
2017-06-26T20:49:32.336Z,10.53
2017-06-26T20:51:59.782Z,8.73
2017-06-26T20:54:27.235Z,10.73
2017-06-26T20:56:54.707Z,17.30
2017-06-26T20:59:23.118Z,10.50
2017-06-26T21:01:50.564Z,10.90
2017-06-26T21:04:18.024Z,9.80
2017-06-26T21:06:46.451Z,12.50
2017-06-26T21:09:13.894Z,12.37
2017-06-26T21:11:42.114Z,11.70
2017-06-26T21:14:09.554Z,10.80
2017-06-26T21:16:37.127Z,13.43
2017-06-26T21:19:04.567Z,11.23
2017-06-26T21:21:33.523Z,11.57
2017-06-26T21:24:00.966Z,12.30
2017-06-26T21:26:28.411Z,11.03
2017-06-26T21:28:55.850Z,13.53
2017-06-26T21:31:23.307Z,10.57
2017-06-26T21:33:50.738Z,10.50
2017-06-26T21:36:18.226Z,12.33
2017-06-26T21:38:45.671Z,15.03
2017-06-26T21:41:13.799Z,11.57
2017-06-26T21:43:41.250Z,12.93
2017-06-26T21:46:08.690Z,12.60
2017-06-26T21:48:36.151Z,13.77
2017-06-26T21:51:03.594Z,12.50
2017-06-26T21:53:31.042Z,13.30
2017-06-26T21:55:58.487Z,12.20
2017-06-26T21:58:25.956Z,12.00
2017-06-26T22:00:53.398Z,12.40
2017-06-26T22:03:20.863Z,12.83
2017-06-26T22:05:48.310Z,11.77
2017-06-26T22:08:32.782Z,13.87
2017-06-26T22:11:00.242Z,13.10
2017-06-26T22:13:28.142Z,15.13
2017-06-26T22:15:56.364Z,14.50
2017-06-26T22:18:23.808Z,15.37
2017-06-26T22:20:51.273Z,11.23
2017-06-26T22:23:18.719Z,16.20
2017-06-26T22:25:46.171Z,14.10
2017-06-26T22:28:13.621Z,12.37
2017-06-26T22:30:41.838Z,13.57
2017-06-26T22:33:09.283Z,10.87
2017-06-26T22:35:36.736Z,14.00
2017-06-26T22:38:04.186Z,11.73
2017-06-26T22:40:31.635Z,12.30
2017-06-26T22:42:59.084Z,12.90
2017-06-26T22:45:26.539Z,11.53
2017-06-26T22:47:54.754Z,13.53
2017-06-26T22:50:22.215Z,13.27
2017-06-26T22:52:49.669Z,11.87
2017-06-26T22:55:17.126Z,12.20
2017-06-26T22:57:44.572Z,16.03
2017-06-26T23:00:12.022Z,11.90
2017-06-26T23:02:39.475Z,13.50
2017-06-26T23:05:06.931Z,13.07
2017-06-26T23:07:51.001Z,13.93
2017-06-26T23:10:19.095Z,14.00
2017-06-26T23:12:46.555Z,11.73
2017-06-26T23:15:14.018Z,12.07
2017-06-26T23:17:43.155Z,13.27
2017-06-26T23:20:11.422Z,15.40
2017-06-26T23:22:39.643Z,12.13
2017-06-26T23:25:07.096Z,12.70
2017-06-26T23:27:34.586Z,13.57
2017-06-26T23:30:02.042Z,12.77
2017-06-26T23:32:29.487Z,11.83
2017-06-26T23:34:56.946Z,14.10
2017-06-26T23:37:24.388Z,14.00
2017-06-26T23:39:51.848Z,12.33
2017-06-26T23:42:19.302Z,13.97
2017-06-26T23:44:47.785Z,12.83
2017-06-26T23:47:15.232Z,12.37
2017-06-26T23:49:43.629Z,12.97
2017-06-26T23:52:11.307Z,14.17
2017-06-26T23:54:38.760Z,12.17
2017-06-26T23:59:40.250Z,13.60
